Time;durP1;ratioP1;P1;durP2;ratioP2;P2;SDS_P1;SDS_P2;PMS_P1;PMS_P2;Temp;Humidity;BMP_temperature;BMP_pressure;BME280_temperature;BME280_humidity;BME280_pressure;Samples;Min_cycle;Max_cycle;Signal;HPM_P1;HPM_P2
2022/06/11 00:00:15;;;;;;;14.63;8.60;;;;;;;16.09;63.15;99825.72;6218661;23;20103;-81
2022/06/11 00:02:41;;;;;;;114.47;64.53;;;;;;;16.13;63.42;99841.34;6244501;23;20027;-81
2022/06/11 00:05:08;;;;;;;51.97;30.45;;;;;;;16.01;63.63;99814.59;6245200;23;20082;-83
2022/06/11 00:07:36;;;;;;;53.10;26.52;;;;;;;16.05;63.72;99841.59;6219281;23;20095;-82
2022/06/11 00:10:04;;;;;;;38.45;22.52;;;;;;;16.05;63.88;99844.22;6169528;23;20024;-81
2022/06/11 00:12:31;;;;;;;65.05;25.00;;;;;;;16.03;64.24;99851.28;6194450;23;20012;-80
2022/06/11 00:14:59;;;;;;;89.10;53.97;;;;;;;15.85;64.56;99826.44;6245049;23;20060;-80
2022/06/11 00:17:26;;;;;;;159.70;90.00;;;;;;;15.81;64.48;99829.16;6187764;23;20103;-80
2022/06/11 00:19:54;;;;;;;51.80;27.35;;;;;;;15.93;64.47;99848.94;6193623;23;20096;-79
2022/06/11 00:22:22;;;;;;;106.55;58.33;;;;;;;15.87;64.43;99848.28;6219546;23;20365;-80
2022/06/11 00:24:49;;;;;;;63.85;34.90;;;;;;;15.91;64.66;99848.13;6216297;23;20403;-80
2022/06/11 00:27:16;;;;;;;85.38;45.15;;;;;;;15.87;64.41;99846.50;6214683;23;20021;-81
2022/06/11 00:29:44;;;;;;;53.97;30.23;;;;;;;15.74;64.52;99834.63;6190515;23;20020;-79
2022/06/11 00:32:13;;;;;;;101.50;54.97;;;;;;;15.68;64.62;99837.44;6212715;23;20020;-80
2022/06/11 00:34:41;;;;;;;86.47;47.00;;;;;;;15.76;64.85;99857.28;6235695;23;20017;-82
2022/06/11 00:37:07;;;;;;;62.90;35.75;;;;;;;15.68;65.02;99847.94;6227595;23;20023;-81
2022/06/11 00:39:36;;;;;;;40.25;19.90;;;;;;;15.71;64.97;99868.81;6215996;23;20020;-81
2022/06/11 00:42:12;;;;;;;38.22;20.60;;;;;;;15.65;65.02;99859.38;6214801;23;20024;-80
2022/06/11 00:44:39;;;;;;;46.83;24.42;;;;;;;15.43;65.00;99825.03;6212711;23;20016;-82
2022/06/11 00:47:07;;;;;;;25.25;15.70;;;;;;;15.52;65.20;99851.00;6188429;23;20016;-82
2022/06/11 00:49:36;;;;;;;24.35;14.63;;;;;;;15.57;65.29;99869.22;6213261;23;20043;-80
2022/06/11 00:52:09;;;;;;;36.75;18.63;;;;;;;15.48;65.47;99854.59;6214500;23;20013;-80
2022/06/11 00:54:39;;;;;;;37.22;20.13;;;;;;;15.33;65.47;99846.28;6188336;23;20063;-82
2022/06/11 00:57:05;;;;;;;31.48;17.52;;;;;;;15.46;65.69;99866.91;6213206;23;20409;-81
2022/06/11 00:59:36;;;;;;;32.45;18.20;;;;;;;15.38;65.77;99851.38;6187882;23;20043;-79
2022/06/11 01:02:04;;;;;;;20.48;12.05;;;;;;;15.39;65.77;99862.72;6214770;23;20516;-81
2022/06/11 01:04:42;;;;;;;28.83;13.05;;;;;;;15.43;66.02;99880.97;6213127;23;20016;-82
2022/06/11 01:07:17;;;;;;;34.15;19.23;;;;;;;15.43;66.15;99880.09;6188038;23;20016;-82
2022/06/11 01:10:08;;;;;;;23.05;14.20;;;;;;;15.43;66.06;99877.47;6188146;23;20016;-81
2022/06/11 01:12:49;;;;;;;20.55;11.07;;;;;;;15.44;66.03;99879.19;6201666;23;20023;-79
2022/06/11 01:15:25;;;;;;;24.83;14.03;;;;;;;15.45;66.12;99896.63;6217668;22;20021;-79
2022/06/11 01:18:04;;;;;;;36.20;17.38;;;;;;;15.44;66.25;99895.78;6217735;23;20246;-82
2022/06/11 01:20:53;;;;;;;27.10;13.55;;;;;;;15.39;66.04;99891.56;6217860;23;20020;-80
2022/06/11 01:23:41;;;;;;;18.17;11.65;;;;;;;15.49;66.25;99904.38;6216977;23;20044;-83
2022/06/11 01:26:28;;;;;;;18.65;10.95;;;;;;;15.49;65.90;99901.75;6193212;23;20022;-81
2022/06/11 01:29:32;;;;;;;19.40;10.63;;;;;;;15.50;66.14;99895.59;6192490;23;20445;-79
2022/06/11 01:32:04;;;;;;;19.88;10.68;;;;;;;15.41;66.21;99871.41;6217229;23;20016;-81
2022/06/11 01:34:30;;;;;;;32.47;15.70;;;;;;;15.58;65.94;99898.00;6218680;23;20016;-80
2022/06/11 01:37:04;;;;;;;18.55;9.63;;;;;;;15.61;65.93;99908.41;6192261;23;20410;-80
2022/06/11 01:39:33;;;;;;;18.85;10.50;;;;;;;15.63;65.84;99900.53;6218469;23;20453;-80
2022/06/11 01:42:28;;;;;;;19.70;9.98;;;;;;;15.67;66.07;99907.38;6170006;23;20032;-80
2022/06/11 01:45:22;;;;;;;18.75;10.38;;;;;;;15.02;65.75;99791.19;6183700;23;20020;-81
2022/06/11 01:47:49;;;;;;;17.08;9.70;;;;;;;15.61;65.90;99886.59;6219036;23;20478;-82
2022/06/11 01:50:29;;;;;;;17.75;10.00;;;;;;;15.74;65.87;99908.09;6168789;23;20024;-81
2022/06/11 01:54:02;;;;;;;14.43;8.52;;;;;;;15.79;65.77;99906.16;6220733;23;20124;-82
2022/06/11 01:57:03;;;;;;;13.73;8.80;;;;;;;15.60;66.05;99867.34;6150109;23;20054;-82
2022/06/11 01:59:57;;;;;;;16.73;9.13;;;;;;;15.89;66.18;99909.44;6200085;23;20046;-81
2022/06/11 02:02:51;;;;;;;14.60;9.77;;;;;;;15.94;66.07;99903.16;6225838;23;20020;-81
2022/06/11 02:05:30;;;;;;;13.90;8.25;;;;;;;16.02;65.91;99905.53;6198324;23;20015;-81
2022/06/11 02:08:16;;;;;;;16.05;8.38;;;;;;;15.69;65.80;99845.25;6240243;23;20136;-79
2022/06/11 02:10:54;;;;;;;11.88;8.30;;;;;;;16.00;65.98;99883.72;6232824;23;20093;-79
2022/06/11 02:13:36;;;;;;;18.77;9.23;;;;;;;16.08;65.93;99883.50;6246760;23;20016;-79
2022/06/11 02:16:32;;;;;;;19.92;8.18;;;;;;;16.32;65.95;99897.66;6249887;22;20174;-79
2022/06/11 02:19:02;;;;;;;13.68;9.27;;;;;;;16.40;66.08;99898.25;6254795;23;20405;-80
2022/06/11 02:21:36;;;;;;;12.43;8.55;;;;;;;16.42;65.71;99895.59;6223674;23;20048;-80
2022/06/11 02:24:19;;;;;;;12.38;7.55;;;;;;;16.53;65.84;99885.59;6193391;23;20023;-79
2022/06/11 02:26:54;;;;;;;16.23;8.30;;;;;;;16.65;65.61;99875.63;6219680;23;20020;-81
2022/06/11 02:29:23;;;;;;;15.70;8.38;;;;;;;16.78;65.76;99873.41;6195038;23;20094;-81
2022/06/11 02:31:54;;;;;;;13.00;8.20;;;;;;;16.93;65.55;99878.16;6219227;23;20015;-80
2022/06/11 02:34:23;;;;;;;16.42;8.50;;;;;;;16.97;65.40;99861.44;6194410;23;20550;-82
2022/06/11 02:37:01;;;;;;;16.13;7.75;;;;;;;17.16;64.99;99880.03;6246122;23;20118;-81
2022/06/11 02:39:31;;;;;;;18.90;8.65;;;;;;;17.14;64.90;99881.00;6218568;23;20019;-81
2022/06/11 02:41:57;;;;;;;33.63;9.57;;;;;;;17.14;64.98;99873.13;6194090;23;20047;-80
2022/06/11 02:44:23;;;;;;;29.10;8.57;;;;;;;17.12;65.12;99856.53;6218454;23;20016;-81
2022/06/11 02:46:50;;;;;;;19.48;8.65;;;;;;;17.33;65.33;99872.47;6246764;23;20046;-80
2022/06/11 02:49:29;;;;;;;25.88;11.40;;;;;;;17.52;65.37;99876.13;6196593;23;20077;-82
2022/06/11 02:51:59;;;;;;;15.20;8.77;;;;;;;17.60;65.04;99852.19;6225930;23;20023;-79
2022/06/11 02:54:26;;;;;;;14.52;9.05;;;;;;;17.80;64.65;99874.25;6196102;23;20063;-82
2022/06/11 02:56:56;;;;;;;16.77;8.43;;;;;;;17.83;64.74;99860.97;6172496;23;20023;-81
2022/06/11 02:59:23;;;;;;;14.40;8.48;;;;;;;18.04;64.74;99880.41;6247616;23;20020;-80
2022/06/11 03:01:52;;;;;;;14.40;9.13;;;;;;;18.11;64.54;99873.13;6195874;23;20039;-80
2022/06/11 03:04:19;;;;;;;15.70;9.10;;;;;;;18.09;64.55;99867.06;6220355;23;20020;-81
2022/06/11 03:06:46;;;;;;;13.75;8.60;;;;;;;18.28;64.46;99873.31;6253402;23;20038;-80
2022/06/11 03:09:15;;;;;;;17.90;9.20;;;;;;;18.44;64.31;99880.59;6233707;23;20059;-81
2022/06/11 03:11:41;;;;;;;13.15;9.27;;;;;;;18.47;64.35;99851.50;6237287;23;20016;-81
2022/06/11 03:14:08;;;;;;;21.35;8.68;;;;;;;18.77;63.98;99882.78;6264263;23;20016;-82
2022/06/11 03:16:37;;;;;;;16.02;9.18;;;;;;;18.94;63.85;99869.72;6263922;23;20035;-80
2022/06/11 03:19:05;;;;;;;13.80;9.05;;;;;;;19.11;63.49;99862.91;6214798;23;20028;-81
2022/06/11 03:21:31;;;;;;;15.00;8.95;;;;;;;19.31;63.22;99864.69;6266501;23;20016;-78
2022/06/11 03:23:58;;;;;;;17.73;9.45;;;;;;;19.39;62.79;99846.75;6185313;23;20020;-79
2022/06/11 03:26:24;;;;;;;19.40;9.30;;;;;;;19.57;62.53;99850.31;6203309;23;20070;-79
2022/06/11 03:28:51;;;;;;;15.52;8.25;;;;;;;19.74;62.09;99845.19;6229665;23;20150;-79
2022/06/11 03:31:17;;;;;;;12.05;8.85;;;;;;;19.95;61.43;99853.94;6234490;23;20016;-79
2022/06/11 03:33:44;;;;;;;13.43;8.63;;;;;;;20.17;60.81;99862.56;6237546;23;20007;-78
2022/06/11 03:36:14;;;;;;;12.70;7.55;;;;;;;20.22;59.53;99837.69;6259162;23;20016;-80
2022/06/11 03:38:42;;;;;;;12.32;8.15;;;;;;;20.44;59.24;99837.50;6253287;23;20016;-80
2022/06/11 03:41:09;;;;;;;11.15;7.50;;;;;;;20.75;57.88;99865.03;6237468;22;20027;-80
2022/06/11 03:43:36;;;;;;;11.93;8.27;;;;;;;20.75;57.17;99855.31;6221200;22;20028;-81
2022/06/11 03:46:03;;;;;;;16.30;8.50;;;;;;;20.98;56.58;99861.25;6244020;23;20012;-81
2022/06/11 03:48:30;;;;;;;13.90;8.18;;;;;;;20.84;55.72;99817.00;6241097;23;20398;-82
2022/06/11 03:50:59;;;;;;;14.25;7.88;;;;;;;21.28;54.77;99867.69;6265770;23;20022;-80
2022/06/11 03:53:35;;;;;;;9.45;7.75;;;;;;;21.43;54.31;99868.66;6219624;23;20039;-84
2022/06/11 03:56:07;;;;;;;12.00;7.55;;;;;;;21.50;53.67;99844.44;6220614;23;20044;-80
2022/06/11 03:58:44;;;;;;;10.05;7.38;;;;;;;21.53;53.55;99819.59;6269807;23;20035;-81
2022/06/11 04:01:19;;;;;;;10.18;7.80;;;;;;;21.43;52.83;99782.19;6259997;23;20016;-79
2022/06/11 04:03:50;;;;;;;9.77;7.60;;;;;;;21.56;52.18;99782.34;6199393;23;20012;-80
2022/06/11 04:06:27;;;;;;;10.10;7.75;;;;;;;22.41;51.78;99886.28;6224486;23;20457;-81
2022/06/11 04:08:57;;;;;;;12.77;7.70;;;;;;;22.60;50.87;99890.56;6195372;23;20106;-80
2022/06/11 04:11:23;;;;;;;10.43;7.95;;;;;;;22.67;50.70;99869.84;6195193;23;20067;-80
2022/06/11 04:13:51;;;;;;;12.40;7.30;;;;;;;22.84;50.05;99869.69;6221122;23;20075;-81
2022/06/11 04:16:24;;;;;;;17.20;7.35;;;;;;;22.91;49.84;99874.66;6172206;23;20478;-81
2022/06/11 04:18:51;;;;;;;11.85;7.10;;;;;;;23.08;49.79;99871.84;6246923;23;20036;-81
2022/06/11 04:21:19;;;;;;;9.77;6.90;;;;;;;23.03;48.99;99852.72;6247611;23;20023;-81
2022/06/11 04:23:49;;;;;;;9.63;6.80;;;;;;;23.27;48.79;99858.34;6219912;23;20020;-80
2022/06/11 04:26:20;;;;;;;9.68;6.57;;;;;;;23.62;48.61;99865.91;6195940;23;20066;-81
2022/06/11 04:28:48;;;;;;;9.82;6.63;;;;;;;23.83;47.96;99870.00;6195310;23;20027;-81
2022/06/11 04:31:15;;;;;;;9.20;7.07;;;;;;;23.93;47.15;99855.19;6194397;23;20020;-79
2022/06/11 04:33:44;;;;;;;12.55;6.57;;;;;;;23.96;46.86;99851.47;6193839;23;20034;-83
2022/06/11 04:36:14;;;;;;;10.20;6.95;;;;;;;24.02;46.47;99827.19;6194055;23;20531;-81
2022/06/11 04:38:41;;;;;;;9.35;6.88;;;;;;;24.19;46.32;99836.72;6193702;23;20419;-81
2022/06/11 04:41:12;;;;;;;15.18;12.15;;;;;;;24.36;46.14;99836.47;6246412;23;20035;-81
2022/06/11 04:43:38;;;;;;;7.28;6.15;;;;;;;24.59;45.39;99847.38;6248076;23;20429;-81
2022/06/11 04:46:06;;;;;;;7.65;5.68;;;;;;;24.80;45.19;99852.25;6221133;23;20027;-80
2022/06/11 04:48:37;;;;;;;8.57;5.45;;;;;;;24.89;44.94;99848.09;6220115;23;20012;-81
2022/06/11 04:51:04;;;;;;;5.57;5.05;;;;;;;25.16;44.58;99863.97;6219015;23;20016;-80
2022/06/11 04:53:31;;;;;;;6.07;5.30;;;;;;;25.34;43.90;99871.66;6194285;23;20008;-81
2022/06/11 04:56:03;;;;;;;8.07;5.50;;;;;;;25.48;42.86;99881.38;6194093;23;20020;-82
2022/06/11 04:58:29;;;;;;;8.80;5.35;;;;;;;25.31;42.78;99839.91;6248981;23;20055;-80
2022/06/11 05:00:55;;;;;;;10.73;5.50;;;;;;;25.56;42.68;99874.53;6199708;23;20023;-80
2022/06/11 05:03:22;;;;;;;6.72;4.57;;;;;;;25.71;42.21;99877.06;6200530;23;20016;-81
2022/06/11 05:05:57;;;;;;;5.38;4.13;;;;;;;25.81;41.61;99853.31;6219439;23;20039;-80
2022/06/11 05:08:35;;;;;;;;;;;;;;;;;;;;;
2022/06/11 05:11:10;;;;;;;6.63;4.45;;;;;;;26.11;40.46;99831.56;6248126;23;20019;-80
2022/06/11 05:13:37;;;;;;;5.32;4.38;;;;;;;26.30;40.50;99843.56;6193943;23;20019;-81
2022/06/11 05:16:05;;;;;;;4.90;4.07;;;;;;;26.61;39.65;99870.59;6196354;23;20020;-80
2022/06/11 05:18:32;;;;;;;4.38;3.38;;;;;;;26.71;39.46;99879.59;6268944;23;20062;-81
2022/06/11 05:20:58;;;;;;;6.00;3.33;;;;;;;26.71;38.82;99855.59;6236433;23;20091;-80
2022/06/11 05:23:33;;;;;;;6.43;3.80;;;;;;;26.70;38.19;99834.38;6221970;23;20043;-81
2022/06/11 05:26:00;;;;;;;3.80;3.13;;;;;;;27.03;37.26;99862.97;6223830;23;20015;-81
2022/06/11 05:28:31;;;;;;;3.17;2.65;;;;;;;27.10;36.59;99849.16;6196846;23;20023;-81
2022/06/11 05:31:01;;;;;;;3.08;2.78;;;;;;;27.49;36.43;99879.94;6197542;23;20022;-80
2022/06/11 05:33:30;;;;;;;5.20;3.00;;;;;;;27.79;36.01;99874.94;6248362;23;20418;-80
2022/06/11 05:35:56;;;;;;;6.35;3.90;;;;;;;27.81;35.48;99824.91;6247815;23;20050;-80
2022/06/11 05:38:25;;;;;;;5.43;3.30;;;;;;;28.29;35.37;99863.81;6219975;23;20483;-81
2022/06/11 05:40:53;;;;;;;7.20;3.70;;;;;;;28.49;35.31;99840.75;6195675;23;20020;-80
2022/06/11 05:43:26;;;;;;;4.03;3.20;;;;;;;28.29;34.54;99772.03;6220463;23;20350;-81
2022/06/11 05:46:11;;;;;;;4.93;3.13;;;;;;;28.91;33.58;99849.81;6247542;23;20015;-79
2022/06/11 05:49:47;;;;;;;3.40;3.10;;;;;;;29.38;33.37;99844.88;6198330;23;20022;-81
2022/06/11 05:52:22;;;;;;;3.03;2.70;;;;;;;30.02;32.69;99786.53;6107715;23;20017;-81
2022/06/11 05:54:50;;;;;;;2.83;2.63;;;;;;;31.53;31.01;99864.72;6133136;23;20028;-81
2022/06/11 05:57:28;;;;;;;4.28;3.33;;;;;;;32.18;29.66;99819.06;6132177;23;20052;-81
2022/06/11 06:00:04;;;;;;;4.45;3.67;;;;;;;33.01;28.39;99858.34;6156569;23;20017;-82
2022/06/11 06:02:48;;;;;;;4.60;2.97;;;;;;;33.07;28.24;99828.06;6148007;23;20028;-82
2022/06/11 06:08:23;;;;;;;4.47;3.38;;;;;;;34.30;26.75;99793.59;6196775;23;20031;-80
2022/06/11 06:11:31;;;;;;;3.90;3.50;;;;;;;34.90;25.88;99791.53;6204323;23;20009;-81
2022/06/11 06:13:57;;;;;;;6.70;4.13;;;;;;;34.88;24.98;99845.72;6236046;23;20549;-83
2022/06/11 06:16:27;;;;;;;5.43;4.20;;;;;;;34.52;25.95;99816.38;6214374;23;20020;-81
2022/06/11 06:19:01;;;;;;;6.53;3.20;;;;;;;35.20;25.25;99835.06;6191457;23;20022;-83
2022/06/11 06:21:35;;;;;;;6.22;3.30;;;;;;;34.98;24.45;99848.25;6216311;23;20013;-82
2022/06/11 06:24:13;;;;;;;6.85;3.17;;;;;;;34.68;24.34;99845.25;6190230;23;20024;-81
2022/06/11 06:26:39;;;;;;;4.25;3.20;;;;;;;36.29;22.90;99824.38;6216063;23;20294;-81
2022/06/11 06:29:47;;;;;;;3.15;2.85;;;;;;;37.93;21.17;99841.81;6190911;23;20052;-82
2022/06/11 06:32:14;;;;;;;6.50;3.67;;;;;;;37.70;21.40;99855.50;6173963;23;20509;-81
2022/06/11 06:34:49;;;;;;;6.05;3.92;;;;;;;37.12;21.22;99826.34;6194202;23;20016;-80
2022/06/11 06:37:29;;;;;;;4.00;3.50;;;;;;;36.77;22.20;99858.50;6169655;23;20012;-83
2022/06/11 06:39:55;;;;;;;4.40;4.00;;;;;;;36.33;22.71;99892.56;6221567;23;20040;-81
2022/06/11 06:42:21;;;;;;;6.68;3.97;;;;;;;35.36;23.26;99872.84;6195783;23;20032;-82
2022/06/11 06:44:52;;;;;;;7.10;3.83;;;;;;;34.36;23.68;99812.66;6194073;23;20070;-81
2022/06/11 06:47:26;;;;;;;8.32;3.90;;;;;;;34.44;24.20;99887.44;6174308;23;20024;-82
2022/06/11 06:49:59;;;;;;;4.38;3.22;;;;;;;33.70;24.29;99844.91;6225956;23;20016;-82
2022/06/11 06:52:25;;;;;;;7.47;4.60;;;;;;;33.25;24.49;99857.63;6235377;23;20015;-81
2022/06/11 06:54:51;;;;;;;5.70;4.18;;;;;;;32.75;24.36;99876.16;6239400;23;20004;-81
2022/06/11 06:57:21;;;;;;;14.63;7.85;;;;;;;32.45;25.41;99875.56;6228250;23;20016;-81
2022/06/11 06:59:55;;;;;;;8.80;6.07;;;;;;;32.38;25.95;99884.41;6196802;23;20017;-81
2022/06/11 07:02:22;;;;;;;8.18;5.00;;;;;;;32.31;25.19;99868.03;6218522;23;20020;-82
2022/06/11 07:04:48;;;;;;;7.57;3.80;;;;;;;32.52;25.78;99858.78;6219161;23;20024;-83
2022/06/11 07:07:34;;;;;;;7.00;3.60;;;;;;;32.25;25.74;99830.94;6219143;23;20532;-84
2022/06/11 07:10:00;;;;;;;5.93;3.85;;;;;;;32.90;25.33;99889.06;6219755;23;20027;-81
2022/06/11 07:12:26;;;;;;;11.10;5.30;;;;;;;33.35;25.16;99854.81;6217998;23;20013;-82
2022/06/11 07:18:01;;;;;;;3.88;3.47;;;;;;;38.21;21.15;99883.66;6070124;23;20038;-83
2022/06/11 07:20:30;;;;;;;9.27;6.20;;;;;;;40.03;19.55;99864.81;6071034;23;20019;-83
2022/06/11 07:23:16;;;;;;;5.50;5.03;;;;;;;41.64;18.19;99850.25;6072195;23;20026;-81
2022/06/11 07:25:55;;;;;;;7.57;3.40;;;;;;;42.17;17.09;99801.00;6075227;23;20026;-81
2022/06/11 07:28:57;;;;;;;11.27;8.82;;;;;;;43.46;16.73;99890.69;6078922;23;20614;-82
2022/06/11 07:31:29;;;;;;;4.15;3.38;;;;;;;44.42;15.59;99886.47;5994557;23;20047;-81
2022/06/11 07:33:56;;;;;;;8.63;6.90;;;;;;;44.35;15.22;99863.81;6046015;23;20019;-82
2022/06/11 07:36:23;;;;;;;4.68;4.00;;;;;;;45.28;14.48;99861.38;6070312;23;20018;-81
2022/06/11 07:38:49;;;;;;;9.00;7.57;;;;;;;46.45;13.69;99853.94;6070160;23;20014;-81
2022/06/11 07:41:15;;;;;;;6.88;5.38;;;;;;;47.84;12.99;99876.97;6069472;23;20034;-83
2022/06/11 07:43:42;;;;;;;11.07;4.43;;;;;;;48.08;12.78;99882.22;6073023;23;20089;-82
2022/06/11 07:46:11;;;;;;;19.25;17.30;;;;;;;46.71;12.78;99860.66;6071139;23;20022;-81
2022/06/11 07:48:37;;;;;;;13.00;5.78;;;;;;;44.76;13.81;99863.97;6094493;23;20304;-81
2022/06/11 07:51:06;;;;;;;15.80;12.55;;;;;;;42.51;14.48;99857.09;6070208;23;20042;-80
2022/06/11 07:53:32;;;;;;;6.18;3.60;;;;;;;40.92;15.79;99863.88;6094149;23;20437;-82
2022/06/11 07:56:01;;;;;;;5.75;4.47;;;;;;;39.83;16.37;99866.66;6072055;23;20022;-81
2022/06/11 07:58:33;;;;;;;18.55;16.80;;;;;;;38.75;16.92;99876.84;6074529;23;20047;-81
2022/06/11 08:01:00;;;;;;;8.50;4.53;;;;;;;37.92;18.05;99861.00;6100556;23;20018;-81
2022/06/11 08:03:31;;;;;;;6.60;4.50;;;;;;;37.37;18.80;99886.56;6077502;23;20469;-80
2022/06/11 08:06:02;;;;;;;7.35;4.82;;;;;;;36.66;19.62;99861.69;6075178;23;20452;-81
2022/06/11 08:08:29;;;;;;;9.18;5.82;;;;;;;36.40;20.08;99881.84;6092216;23;20027;-82
2022/06/11 08:10:56;;;;;;;13.18;10.00;;;;;;;35.84;20.14;99872.84;6068152;23;20023;-81
2022/06/11 08:13:22;;;;;;;10.07;6.97;;;;;;;35.36;20.85;99880.97;6069262;23;20026;-79
2022/06/11 08:15:49;;;;;;;5.75;4.32;;;;;;;34.79;21.53;99890.81;6069935;23;20425;-81
2022/06/11 08:18:17;;;;;;;16.95;10.50;;;;;;;34.36;21.92;99907.16;6070688;23;20049;-82
2022/06/11 08:20:45;;;;;;;15.93;13.82;;;;;;;33.87;22.63;99902.47;6076408;23;20070;-83
2022/06/11 08:23:14;;;;;;;13.77;9.50;;;;;;;33.52;23.23;99904.31;6068632;23;20649;-81
2022/06/11 08:25:40;;;;;;;8.70;5.95;;;;;;;33.10;22.80;99905.91;6071061;23;20029;-82
2022/06/11 08:28:07;;;;;;;9.80;8.27;;;;;;;32.25;23.96;99872.13;6063567;23;20026;-81
2022/06/11 08:30:34;;;;;;;8.40;6.10;;;;;;;32.03;25.16;99908.41;6114042;23;20029;-80
2022/06/11 08:33:03;;;;;;;7.03;4.70;;;;;;;31.30;25.70;99879.53;6075612;23;20496;-82
2022/06/11 08:35:31;;;;;;;4.57;3.50;;;;;;;30.92;26.74;99912.53;6048528;23;20026;-82
2022/06/11 08:38:00;;;;;;;18.63;15.52;;;;;;;30.45;27.64;99909.69;6053027;23;20022;-83
2022/06/11 08:40:35;;;;;;;6.80;4.07;;;;;;;30.25;28.50;99912.34;6070517;23;20019;-83
2022/06/11 08:43:03;;;;;;;9.35;7.45;;;;;;;29.60;29.20;99859.06;6071478;23;20074;-81
2022/06/11 08:45:37;;;;;;;7.10;3.67;;;;;;;29.62;29.56;99908.03;6094055;23;20161;-80
2022/06/11 08:48:13;;;;;;;8.50;5.07;;;;;;;29.20;29.32;99874.09;6094534;23;20015;-83
2022/06/11 08:50:53;;;;;;;8.23;3.67;;;;;;;28.71;29.60;99836.28;6071944;23;20026;-84
2022/06/11 08:53:20;;;;;;;5.43;3.35;;;;;;;29.00;29.94;99908.78;6070483;23;20034;-83
2022/06/11 08:55:50;;;;;;;5.55;3.33;;;;;;;28.53;30.12;99850.22;6095442;23;20025;-81
2022/06/11 08:58:25;;;;;;;14.98;7.13;;;;;;;28.91;30.93;99892.66;6097773;23;20023;-81
2022/06/11 09:01:15;;;;;;;6.72;4.78;;;;;;;29.40;31.22;99922.44;6053312;23;20045;-83
2022/06/11 09:04:02;;;;;;;8.13;3.30;;;;;;;29.96;30.34;99915.78;6073872;23;20015;-81
2022/06/11 09:06:53;;;;;;;12.50;5.82;;;;;;;30.40;29.94;99856.44;6071369;23;20018;-82
2022/06/11 09:10:05;;;;;;;6.82;3.95;;;;;;;31.11;29.18;99908.13;6069538;23;20019;-81
2022/06/11 09:13:02;;;;;;;13.57;10.55;;;;;;;30.80;28.77;99885.00;6061398;23;20078;-86
2022/06/11 09:16:05;;;;;;;14.57;9.25;;;;;;;30.67;28.49;99913.97;6068334;23;20373;-81
2022/06/11 09:19:15;;;;;;;7.95;6.53;;;;;;;30.23;28.90;99878.59;6045042;23;20018;-81
2022/06/11 09:21:57;;;;;;;10.93;6.63;;;;;;;30.43;28.78;99911.66;6069951;23;20030;-82
2022/06/11 09:24:37;;;;;;;14.75;8.95;;;;;;;30.40;29.25;99907.44;6045925;23;20022;-82
2022/06/11 09:27:14;;;;;;;15.85;12.07;;;;;;;30.39;29.64;99910.22;6075544;23;20034;-82
2022/06/11 09:33:06;;;;;;;31.17;27.13;;;;;;;30.00;30.03;99871.63;6139859;23;20021;-83
2022/06/11 09:35:39;;;;;;;22.13;15.95;;;;;;;30.10;29.83;99892.28;6161168;23;20044;-81
2022/06/11 09:38:23;;;;;;;37.67;30.40;;;;;;;30.29;29.69;99902.16;6132832;23;20017;-80
2022/06/11 09:40:56;;;;;;;40.38;33.50;;;;;;;30.44;29.53;99900.78;6160303;23;20048;-82
2022/06/11 09:43:53;;;;;;;36.00;29.50;;;;;;;30.60;29.25;99908.28;6156135;23;20013;-82
2022/06/11 09:46:49;;;;;;;7.25;5.40;;;;;;;29.97;29.26;99833.53;6132174;23;20032;-80
2022/06/11 09:49:24;;;;;;;23.58;15.60;;;;;;;29.75;30.05;99871.09;6131491;23;20348;-83
2022/06/11 09:52:15;;;;;;;6.43;3.78;;;;;;;29.69;30.45;99908.34;6155596;23;20017;-81
2022/06/11 09:55:02;;;;;;;11.90;8.45;;;;;;;29.44;31.17;99907.81;6156086;23;20021;-80
2022/06/11 09:57:49;;;;;;;14.90;10.32;;;;;;;29.13;31.52;99894.38;6155640;23;20017;-82
2022/06/11 10:00:21;;;;;;;15.40;13.15;;;;;;;28.99;31.63;99904.41;6155332;23;20017;-81
2022/06/11 10:05:59;;;;;;;10.52;7.57;;;;;;;28.49;32.45;99862.16;6115822;23;20001;-81
2022/06/11 10:08:49;;;;;;;20.02;13.43;;;;;;;29.06;32.02;99904.72;6085725;23;20022;-81
2022/06/11 10:11:30;;;;;;;10.05;7.35;;;;;;;30.58;31.68;99899.53;6137846;23;20024;-80
2022/06/11 10:14:28;;;;;;;4.38;3.08;;;;;;;32.62;28.57;99894.53;6085530;23;20073;-83
2022/06/11 10:16:52;;;;;;;3.13;2.72;;;;;;;33.94;26.44;99870.28;6149212;23;20069;-83
2022/06/11 10:19:23;;;;;;;7.80;6.03;;;;;;;34.49;25.47;99885.09;6129838;23;20032;-82
2022/06/11 10:21:59;;;;;;;14.77;9.20;;;;;;;34.88;24.91;99888.13;6126636;23;20045;-81
2022/06/11 10:24:30;;;;;;;6.13;3.00;;;;;;;35.00;24.23;99892.19;6103689;23;20073;-82
2022/06/11 10:27:08;;;;;;;11.05;6.78;;;;;;;34.71;24.09;99871.94;6079553;23;20041;-81
2022/06/11 10:29:49;;;;;;;4.47;3.05;;;;;;;34.43;24.42;99869.56;6104053;23;20105;-85
2022/06/11 10:32:22;;;;;;;;;;;;;;;34.00;24.89;99887.66;6102535;23;20122;-82
2022/06/11 10:35:03;;;;;;;5.40;3.22;;;;;;;33.14;25.29;99888.38;6136451;23;19916;-81
2022/06/11 10:37:42;;;;;;;5.63;3.50;;;;;;;32.41;25.89;99884.09;6091100;23;20022;-81
2022/06/11 10:40:21;;;;;;;6.90;3.80;;;;;;;31.95;26.67;99881.38;6116190;23;20002;-81
2022/06/11 10:43:00;;;;;;;9.02;4.90;;;;;;;32.00;26.72;99877.25;6116738;23;20017;-81
2022/06/11 10:45:27;;;;;;;7.20;5.70;;;;;;;32.24;26.70;99878.50;6115754;23;20010;-82
2022/06/11 10:48:00;;;;;;;6.88;3.60;;;;;;;32.23;26.92;99874.13;6139461;23;20033;-81
2022/06/11 10:50:35;;;;;;;5.78;3.50;;;;;;;32.23;26.64;99871.44;6090873;23;20054;-82
2022/06/11 10:53:12;;;;;;;7.70;5.32;;;;;;;32.25;26.73;99863.22;6090924;23;20002;-81
2022/06/11 10:55:59;;;;;;;4.80;3.90;;;;;;;31.81;27.01;99815.50;6083512;23;20033;-82
2022/06/11 10:58:37;;;;;;;6.97;3.75;;;;;;;31.89;26.97;99863.19;6116243;23;20022;-82
2022/06/11 11:01:26;;;;;;;5.15;3.45;;;;;;;31.48;27.53;99850.06;6113265;23;20073;-81
2022/06/11 11:03:56;;;;;;;7.22;4.78;;;;;;;31.54;27.78;99879.03;6066869;23;20025;-81
2022/06/11 11:06:41;;;;;;;9.75;5.05;;;;;;;31.74;27.90;99844.03;6138162;23;20018;-79
2022/06/11 11:09:24;;;;;;;7.32;6.15;;;;;;;31.92;27.64;99827.88;6093080;23;20018;-82
2022/06/11 11:12:06;;;;;;;5.57;4.55;;;;;;;32.08;27.73;99830.78;6118947;23;20018;-81
2022/06/11 11:14:57;;;;;;;14.60;8.55;;;;;;;31.84;28.40;99829.50;6095131;23;20034;-82
2022/06/11 11:17:32;;;;;;;16.38;13.30;;;;;;;31.45;28.64;99829.66;6137285;23;20025;-82
2022/06/11 11:20:32;;;;;;;5.05;4.05;;;;;;;31.26;28.43;99844.06;6067612;23;20033;-82
2022/06/11 11:23:15;;;;;;;7.70;6.32;;;;;;;31.46;28.55;99893.19;6090281;23;20485;-83
2022/06/11 11:25:52;;;;;;;12.85;6.53;;;;;;;31.37;28.91;99876.09;6083697;23;20021;-81
2022/06/11 11:28:29;;;;;;;9.07;6.32;;;;;;;30.97;29.44;99857.53;6105097;23;20018;-82
2022/06/11 11:31:09;;;;;;;5.07;3.35;;;;;;;31.21;29.12;99875.88;6085774;23;20018;-83
2022/06/11 11:33:45;;;;;;;5.10;3.65;;;;;;;31.18;30.26;99876.19;6059770;23;20017;-81
2022/06/11 11:36:17;;;;;;;11.80;6.07;;;;;;;31.09;29.84;99851.00;6138723;23;20022;-81
2022/06/11 11:39:01;;;;;;;6.22;4.22;;;;;;;31.18;29.06;99868.09;6147724;23;20025;-80
2022/06/11 11:41:33;;;;;;;4.50;3.30;;;;;;;31.07;28.78;99847.59;6137676;23;20400;-81
2022/06/11 11:44:00;;;;;;;9.52;7.53;;;;;;;30.97;29.52;99862.91;6132350;23;20018;-82
2022/06/11 11:46:33;;;;;;;17.33;14.73;;;;;;;30.69;29.51;99855.59;6131913;23;20108;-81
2022/06/11 11:49:06;;;;;;;15.00;13.40;;;;;;;30.26;30.07;99868.44;6106851;23;20021;-82
2022/06/11 11:51:39;;;;;;;4.78;3.60;;;;;;;30.32;30.21;99896.53;6107872;23;20017;-81
2022/06/11 11:54:21;;;;;;;3.83;3.00;;;;;;;29.98;29.88;99905.78;6130714;23;20017;-83
2022/06/11 11:56:55;;;;;;;6.03;5.25;;;;;;;29.59;29.97;99858.22;6130967;23;19997;-81
2022/06/11 11:59:42;;;;;;;6.43;4.68;;;;;;;29.71;30.41;99892.97;6135070;23;20021;-80
2022/06/11 12:02:24;;;;;;;7.82;3.13;;;;;;;29.66;30.44;99888.03;6079005;23;20460;-82
2022/06/11 12:04:57;;;;;;;6.55;4.40;;;;;;;29.59;30.25;99857.38;6127875;23;20041;-82
2022/06/11 12:07:37;;;;;;;4.40;3.33;;;;;;;29.64;30.44;99881.94;6080426;23;20021;-81
2022/06/11 12:10:19;;;;;;;10.82;5.13;;;;;;;29.58;30.29;99864.56;6128798;23;20028;-81
2022/06/11 12:12:50;;;;;;;4.15;3.65;;;;;;;29.85;30.28;99873.81;6078733;23;20018;-82
2022/06/11 12:15:19;;;;;;;5.72;3.80;;;;;;;29.92;29.87;99876.78;6125179;23;20501;-81